createdAt,value
2017-12-19T00:01:26.386Z,9.20
2017-12-19T00:03:53.923Z,8.40
2017-12-19T00:06:21.430Z,9.30
2017-12-19T00:08:48.942Z,8.45
2017-12-19T00:11:16.547Z,8.85
2017-12-19T00:13:44.100Z,7.93
2017-12-19T00:16:11.615Z,9.75
2017-12-19T00:18:39.107Z,8.32
2017-12-19T00:21:06.618Z,8.57
2017-12-19T00:23:34.899Z,8.13
2017-12-19T00:26:03.184Z,8.55
2017-12-19T00:28:30.689Z,9.18
2017-12-19T00:30:58.198Z,8.38
2017-12-19T00:33:25.706Z,8.20
2017-12-19T00:35:53.218Z,8.02
2017-12-19T00:38:20.711Z,9.05
2017-12-19T00:40:48.234Z,8.23
2017-12-19T00:43:15.734Z,8.27
2017-12-19T00:45:43.250Z,8.65
2017-12-19T00:48:10.762Z,8.95
2017-12-19T00:50:38.270Z,8.05
2017-12-19T00:53:05.772Z,8.93
2017-12-19T00:55:33.304Z,8.68
2017-12-19T00:58:00.798Z,8.15
2017-12-19T01:00:28.339Z,9.20
2017-12-19T01:02:55.849Z,8.38
2017-12-19T01:05:24.135Z,8.50
2017-12-19T01:07:52.486Z,8.68
2017-12-19T01:10:19.986Z,8.15
2017-12-19T01:12:47.527Z,8.63
2017-12-19T01:15:15.794Z,8.77
2017-12-19T01:17:43.306Z,8.93
2017-12-19T01:20:10.806Z,9.35
2017-12-19T01:22:38.325Z,8.63
2017-12-19T01:25:06.628Z,9.25
2017-12-19T01:27:34.146Z,8.60
2017-12-19T01:30:01.647Z,9.40
2017-12-19T01:32:29.163Z,8.88
2017-12-19T01:34:57.449Z,8.93
2017-12-19T01:37:24.974Z,8.48
2017-12-19T01:39:53.246Z,8.73
2017-12-19T01:42:21.530Z,8.95
2017-12-19T01:44:49.803Z,9.40
2017-12-19T01:47:18.091Z,8.32
2017-12-19T01:49:45.592Z,9.05
2017-12-19T01:52:13.111Z,9.20
2017-12-19T01:54:40.606Z,9.40
2017-12-19T01:57:08.143Z,8.07
2017-12-19T01:59:35.643Z,9.00
2017-12-19T02:02:03.179Z,9.70
2017-12-19T02:04:30.673Z,8.82
2017-12-19T02:06:58.168Z,9.73
2017-12-19T02:09:25.682Z,8.40
2017-12-19T02:11:53.183Z,8.38
2017-12-19T02:14:20.700Z,8.20
2017-12-19T02:16:48.198Z,8.35
2017-12-19T02:19:15.720Z,8.32
2017-12-19T02:21:43.218Z,8.73
2017-12-19T02:24:10.739Z,7.95
2017-12-19T02:26:38.243Z,8.23
2017-12-19T02:29:05.758Z,9.02
2017-12-19T02:31:33.261Z,7.45
2017-12-19T02:34:00.787Z,6.87
2017-12-19T02:36:28.279Z,7.70
2017-12-19T02:38:55.796Z,7.90
2017-12-19T02:41:23.294Z,6.90
2017-12-19T02:43:50.816Z,7.12
2017-12-19T02:46:18.310Z,6.87
2017-12-19T02:48:45.823Z,6.50
2017-12-19T02:51:13.345Z,7.28
2017-12-19T02:53:40.905Z,7.37
2017-12-19T02:56:08.402Z,6.60
2017-12-19T02:58:35.906Z,6.50
2017-12-19T03:01:03.427Z,6.25
2017-12-19T03:03:30.936Z,8.38
2017-12-19T03:05:58.471Z,7.07
2017-12-19T03:08:26.746Z,7.15
2017-12-19T03:10:55.022Z,6.30
2017-12-19T03:13:23.306Z,6.78
2017-12-19T03:15:51.576Z,6.22
2017-12-19T03:18:19.841Z,6.78
2017-12-19T03:20:48.130Z,6.85
2017-12-19T03:23:16.391Z,7.18
2017-12-19T03:25:43.902Z,7.50
2017-12-19T03:28:12.170Z,7.45
2017-12-19T03:30:39.692Z,7.95
2017-12-19T03:33:07.953Z,7.72
2017-12-19T03:35:35.471Z,7.60
2017-12-19T03:38:02.967Z,6.70
2017-12-19T03:40:30.493Z,7.70
2017-12-19T03:42:57.995Z,7.75
2017-12-19T03:45:25.510Z,7.20
2017-12-19T03:47:53.007Z,7.40
2017-12-19T03:50:20.522Z,7.50
2017-12-19T03:52:48.023Z,8.02
2017-12-19T03:55:15.523Z,7.90
2017-12-19T03:57:43.033Z,8.75
2017-12-19T04:00:10.551Z,7.30
2017-12-19T04:02:38.108Z,8.85
2017-12-19T04:05:05.611Z,8.30
2017-12-19T04:07:33.139Z,7.57
2017-12-19T04:10:00.668Z,8.98
2017-12-19T04:12:28.950Z,8.27
2017-12-19T04:14:56.474Z,7.25
2017-12-19T04:17:23.995Z,8.07
2017-12-19T04:19:51.521Z,7.32
2017-12-19T04:22:19.801Z,7.85
2017-12-19T04:24:47.305Z,8.00
2017-12-19T04:27:14.826Z,8.40
2017-12-19T04:29:42.331Z,7.12
2017-12-19T04:32:09.845Z,7.43
2017-12-19T04:34:37.343Z,7.75
2017-12-19T04:37:04.858Z,7.90
2017-12-19T04:39:32.374Z,7.90
2017-12-19T04:41:59.902Z,7.80
2017-12-19T04:44:27.407Z,8.00
2017-12-19T04:46:54.946Z,8.95
2017-12-19T04:49:22.438Z,8.20
2017-12-19T04:51:50.702Z,8.40
2017-12-19T04:54:18.226Z,8.30
2017-12-19T04:56:45.718Z,8.15
2017-12-19T04:59:13.231Z,7.45
2017-12-19T05:01:41.550Z,8.52
2017-12-19T05:04:09.065Z,8.77
2017-12-19T05:06:36.558Z,8.25
2017-12-19T05:09:04.087Z,8.10
2017-12-19T05:11:31.591Z,7.90
2017-12-19T05:13:59.111Z,8.32
2017-12-19T05:16:26.618Z,7.55
2017-12-19T05:18:54.897Z,8.30
2017-12-19T05:21:23.158Z,7.22
2017-12-19T05:23:50.664Z,7.65
2017-12-19T05:26:18.162Z,7.93
2017-12-19T05:28:45.669Z,8.50
2017-12-19T05:31:13.184Z,9.02
2017-12-19T05:33:44.042Z,8.82
2017-12-19T05:36:12.303Z,8.57
2017-12-19T05:38:39.817Z,7.93
2017-12-19T05:41:07.310Z,8.02
2017-12-19T05:43:34.873Z,7.90
2017-12-19T05:46:02.367Z,8.00
2017-12-19T05:48:30.639Z,7.72
2017-12-19T05:50:58.939Z,7.05
2017-12-19T05:53:26.455Z,7.70
2017-12-19T05:55:53.954Z,7.93
2017-12-19T05:58:21.474Z,7.72
2017-12-19T06:00:48.986Z,8.25
2017-12-19T06:03:16.551Z,7.43
2017-12-19T06:05:44.051Z,6.55
2017-12-19T06:08:11.555Z,7.55
2017-12-19T06:10:39.066Z,6.93
2017-12-19T06:13:06.558Z,6.97
2017-12-19T06:15:34.066Z,9.18
2017-12-19T06:18:01.573Z,8.20
2017-12-19T06:20:29.850Z,8.45
2017-12-19T06:22:57.356Z,8.52
2017-12-19T06:25:24.870Z,8.07
2017-12-19T06:27:52.368Z,9.20
2017-12-19T06:30:19.885Z,8.95
2017-12-19T06:32:47.387Z,8.95
2017-12-19T06:35:14.955Z,7.93
2017-12-19T06:37:42.446Z,8.85
2017-12-19T06:40:10.714Z,8.75
2017-12-19T06:42:38.236Z,9.02
2017-12-19T06:45:06.497Z,9.85
2017-12-19T06:47:34.024Z,9.55
2017-12-19T06:50:02.296Z,9.45
2017-12-19T06:52:29.816Z,10.60
2017-12-19T06:54:57.318Z,9.88
2017-12-19T06:57:25.602Z,9.65
2017-12-19T06:59:53.862Z,9.18
2017-12-19T07:02:22.155Z,8.77
2017-12-19T07:04:49.650Z,9.45
2017-12-19T07:07:17.166Z,9.20
2017-12-19T07:09:45.434Z,9.20
2017-12-19T07:12:13.716Z,9.63
2017-12-19T07:14:41.975Z,9.65
2017-12-19T07:17:09.484Z,10.05
2017-12-19T07:19:37.005Z,10.05
2017-12-19T07:22:04.501Z,10.35
2017-12-19T07:24:32.022Z,10.13
2017-12-19T07:27:00.285Z,8.98
2017-12-19T07:29:27.808Z,9.88
2017-12-19T07:31:55.303Z,9.70
2017-12-19T07:34:22.818Z,9.82
2017-12-19T07:36:50.315Z,10.95
2017-12-19T07:39:17.844Z,11.18
2017-12-19T07:41:45.353Z,11.52
2017-12-19T07:44:13.647Z,11.50
2017-12-19T07:46:41.910Z,11.85
2017-12-19T07:49:10.202Z,12.02
2017-12-19T07:51:38.467Z,12.18
2017-12-19T07:54:06.789Z,12.68
2017-12-19T07:56:34.282Z,11.80
2017-12-19T07:59:03.286Z,14.10
2017-12-19T08:01:31.578Z,13.90
2017-12-19T08:03:59.841Z,13.95
2017-12-19T08:06:28.121Z,14.32
2017-12-19T08:08:56.385Z,14.52
2017-12-19T08:11:23.905Z,14.93
2017-12-19T08:13:51.419Z,15.65
2017-12-19T08:16:19.698Z,15.75
2017-12-19T08:18:47.959Z,14.45
2017-12-19T08:21:15.502Z,16.20
2017-12-19T08:23:43.008Z,15.25
2017-12-19T08:26:10.510Z,14.98
2017-12-19T08:28:38.031Z,17.45
2017-12-19T08:31:05.538Z,16.92
2017-12-19T08:33:33.050Z,16.00
2017-12-19T08:36:00.553Z,17.50
2017-12-19T08:38:28.074Z,17.40
2017-12-19T08:40:55.571Z,18.08
2017-12-19T08:43:23.089Z,16.98
2017-12-19T08:45:51.357Z,18.02
2017-12-19T08:48:18.879Z,18.55
2017-12-19T08:50:46.382Z,16.73
2017-12-19T08:53:13.925Z,18.62
2017-12-19T08:55:42.195Z,18.50
2017-12-19T08:58:10.481Z,18.83
2017-12-19T09:00:38.747Z,18.98
2017-12-19T09:03:07.037Z,18.20
2017-12-19T09:05:34.543Z,18.62
2017-12-19T09:08:02.058Z,19.45
2017-12-19T09:10:29.565Z,18.92
2017-12-19T09:12:57.078Z,19.62
2017-12-19T09:15:24.574Z,19.58
2017-12-19T09:17:52.126Z,18.70
2017-12-19T09:20:19.626Z,19.92
2017-12-19T09:22:47.145Z,21.45
2017-12-19T09:25:14.651Z,19.98
2017-12-19T09:27:42.938Z,19.95
2017-12-19T09:30:11.204Z,20.08
2017-12-19T09:32:39.539Z,20.30
2017-12-19T09:35:07.037Z,20.58
2017-12-19T09:37:34.545Z,19.08
2017-12-19T09:40:02.068Z,18.50
2017-12-19T09:42:30.338Z,19.30
2017-12-19T09:44:58.623Z,19.58
2017-12-19T09:47:26.891Z,19.45
2017-12-19T09:49:55.169Z,20.90
2017-12-19T09:52:23.438Z,20.25
2017-12-19T09:54:50.954Z,19.70
2017-12-19T09:57:18.454Z,19.15
2017-12-19T09:59:45.982Z,20.40
2017-12-19T10:02:13.486Z,20.23
2017-12-19T10:04:41.777Z,20.52
2017-12-19T10:07:09.279Z,19.73
2017-12-19T10:09:36.809Z,21.12
2017-12-19T10:12:04.322Z,21.45
2017-12-19T10:14:31.850Z,21.20
2017-12-19T10:16:59.341Z,22.70
2017-12-19T10:19:26.862Z,21.05
2017-12-19T10:21:54.375Z,21.48
2017-12-19T10:24:22.714Z,19.75
2017-12-19T10:26:50.178Z,21.15
2017-12-19T10:29:17.706Z,20.20
2017-12-19T10:31:45.202Z,18.58
2017-12-19T10:34:12.735Z,20.23
2017-12-19T10:36:40.238Z,20.08
2017-12-19T10:39:08.530Z,20.00
2017-12-19T10:41:36.805Z,21.27
2017-12-19T10:44:04.326Z,20.52
2017-12-19T10:46:31.830Z,20.95
2017-12-19T10:48:59.379Z,20.52
2017-12-19T10:51:26.880Z,20.23
2017-12-19T10:53:54.380Z,20.95
2017-12-19T10:56:21.897Z,20.42
2017-12-19T10:58:49.390Z,20.67
2017-12-19T11:01:16.906Z,21.05
2017-12-19T11:03:44.410Z,21.00
2017-12-19T11:06:11.939Z,21.23
2017-12-19T11:08:39.451Z,21.75
2017-12-19T11:11:07.734Z,20.20
2017-12-19T11:13:36.004Z,19.62
2017-12-19T11:16:03.537Z,18.70
2017-12-19T11:18:31.038Z,17.17
2017-12-19T11:20:58.529Z,17.23
2017-12-19T11:23:26.053Z,19.40
2017-12-19T11:25:53.635Z,18.20
2017-12-19T11:28:22.986Z,20.33
2017-12-19T11:30:50.501Z,19.35
2017-12-19T11:33:18.025Z,18.00
2017-12-19T11:35:45.530Z,19.23
2017-12-19T11:38:13.047Z,19.23
2017-12-19T11:40:40.554Z,19.62
2017-12-19T11:43:08.126Z,18.25
2017-12-19T11:45:35.605Z,21.87
2017-12-19T11:48:03.911Z,23.67
2017-12-19T11:50:31.410Z,25.35
2017-12-19T11:52:58.934Z,21.92
2017-12-19T11:55:26.429Z,23.75
2017-12-19T11:57:53.939Z,21.67
2017-12-19T12:00:21.485Z,20.95
2017-12-19T12:02:49.759Z,21.00
2017-12-19T12:05:18.054Z,21.27
2017-12-19T12:07:45.564Z,22.13
2017-12-19T12:10:13.082Z,24.70
2017-12-19T12:12:40.596Z,24.70
2017-12-19T12:15:08.899Z,21.35
2017-12-19T12:17:36.411Z,20.08
2017-12-19T12:20:03.940Z,21.12
2017-12-19T12:22:31.442Z,20.80
2017-12-19T12:24:58.970Z,19.77
2017-12-19T12:27:26.471Z,21.05
2017-12-19T12:29:53.996Z,19.73
2017-12-19T12:32:21.506Z,19.15
2017-12-19T12:34:49.789Z,19.55
2017-12-19T12:37:18.059Z,18.17
2017-12-19T12:39:46.351Z,17.80
2017-12-19T12:42:13.861Z,17.15
2017-12-19T12:44:41.389Z,18.92
2017-12-19T12:47:08.890Z,18.92
2017-12-19T12:49:36.405Z,19.05
2017-12-19T12:52:03.923Z,18.73
2017-12-19T12:54:32.190Z,18.87
2017-12-19T12:56:59.710Z,18.77
2017-12-19T12:59:27.218Z,17.77
2017-12-19T13:01:55.505Z,18.17
2017-12-19T13:04:23.773Z,18.37
2017-12-19T13:06:52.091Z,18.25
2017-12-19T13:09:20.353Z,17.83
2017-12-19T13:11:48.670Z,17.37
2017-12-19T13:14:16.183Z,16.30
2017-12-19T13:16:44.437Z,16.73
2017-12-19T13:19:11.949Z,14.90
2017-12-19T13:24:13.364Z,15.82
2017-12-19T13:26:40.859Z,15.93
2017-12-19T13:29:08.382Z,18.60
2017-12-19T13:31:36.658Z,15.95
2017-12-19T13:34:04.959Z,14.38
2017-12-19T13:36:32.465Z,16.12
2017-12-19T13:39:00.004Z,15.13
2017-12-19T13:41:27.536Z,16.08
2017-12-19T13:43:55.810Z,15.40
2017-12-19T13:46:24.074Z,15.90
2017-12-19T13:48:52.390Z,15.50
2017-12-19T13:51:19.911Z,15.13
2017-12-19T13:53:48.203Z,16.40
2017-12-19T13:56:15.701Z,17.08
2017-12-19T13:58:43.223Z,15.27
2017-12-19T14:01:10.730Z,17.55
2017-12-19T14:03:38.461Z,16.98
2017-12-19T14:06:05.977Z,16.52
2017-12-19T14:08:34.274Z,17.33
2017-12-19T14:11:02.535Z,16.35
2017-12-19T14:13:30.043Z,15.82
2017-12-19T14:15:57.564Z,17.90
2017-12-19T14:18:25.833Z,15.43
2017-12-19T14:20:54.155Z,16.30
2017-12-19T14:23:21.694Z,16.92
2017-12-19T14:25:49.218Z,17.10
2017-12-19T14:28:16.722Z,17.33
2017-12-19T14:30:44.254Z,16.35
2017-12-19T14:33:12.518Z,15.43
2017-12-19T14:35:40.038Z,16.05
2017-12-19T14:38:07.545Z,14.73
2017-12-19T14:40:35.838Z,14.90
2017-12-19T14:43:03.346Z,16.27
2017-12-19T14:45:30.982Z,14.25
2017-12-19T14:47:59.242Z,14.48
2017-12-19T14:50:26.766Z,15.18
2017-12-19T14:52:54.280Z,14.73
2017-12-19T14:55:21.807Z,16.10
2017-12-19T14:57:49.315Z,15.27
2017-12-19T15:00:16.836Z,14.10
2017-12-19T15:02:44.329Z,13.60
2017-12-19T15:05:11.848Z,16.12
2017-12-19T15:07:39.361Z,14.57
2017-12-19T15:10:06.894Z,15.50
2017-12-19T15:12:34.399Z,15.63
2017-12-19T15:15:01.918Z,16.77
2017-12-19T15:17:29.423Z,16.08
2017-12-19T15:19:57.717Z,17.15
2017-12-19T15:22:25.993Z,16.20
2017-12-19T15:24:53.554Z,17.80
2017-12-19T15:27:21.822Z,18.62
2017-12-19T15:29:50.095Z,18.85
2017-12-19T15:32:18.401Z,18.42
2017-12-19T15:34:45.922Z,18.90
2017-12-19T15:37:13.484Z,19.77
2017-12-19T15:39:41.754Z,19.10
2017-12-19T15:42:09.289Z,19.80
2017-12-19T15:44:37.564Z,19.30
2017-12-19T15:47:05.083Z,18.87
2017-12-19T15:49:32.598Z,19.55
2017-12-19T15:52:00.123Z,19.98
2017-12-19T15:54:27.639Z,20.85
2017-12-19T15:56:55.946Z,22.33
2017-12-19T15:59:23.454Z,19.65
2017-12-19T16:01:50.950Z,19.50
2017-12-19T16:04:18.471Z,21.12
2017-12-19T16:06:45.985Z,18.85
2017-12-19T16:09:13.518Z,22.25
2017-12-19T16:11:41.790Z,21.08
2017-12-19T16:14:09.313Z,24.58
2017-12-19T16:16:36.814Z,23.60
2017-12-19T16:19:05.099Z,23.55
2017-12-19T16:21:33.374Z,24.05
2017-12-19T16:24:00.899Z,23.02
2017-12-19T16:26:28.412Z,24.25
2017-12-19T16:28:55.947Z,24.63
2017-12-19T16:31:23.451Z,23.60
2017-12-19T16:33:50.967Z,24.17
2017-12-19T16:36:19.259Z,22.87
2017-12-19T16:38:46.767Z,24.40
2017-12-19T16:41:14.301Z,25.33
2017-12-19T16:43:41.863Z,24.27
2017-12-19T16:46:09.391Z,24.85
2017-12-19T16:48:36.890Z,25.62
2017-12-19T16:51:04.405Z,25.05
2017-12-19T16:53:32.674Z,21.77
2017-12-19T16:56:00.959Z,22.00
2017-12-19T16:58:28.458Z,24.77
2017-12-19T17:00:55.978Z,23.62
2017-12-19T17:03:23.479Z,25.17
2017-12-19T17:05:51.042Z,24.98
2017-12-19T17:08:18.555Z,27.62
2017-12-19T17:10:46.839Z,24.60
2017-12-19T17:13:14.388Z,26.83
2017-12-19T17:15:42.676Z,27.35
2017-12-19T17:18:10.173Z,26.67
2017-12-19T17:20:37.696Z,26.55
2017-12-19T17:23:05.225Z,26.33
2017-12-19T17:25:32.758Z,25.65
2017-12-19T17:28:00.262Z,27.35
2017-12-19T17:30:27.786Z,25.23
2017-12-19T17:32:55.323Z,24.52
2017-12-19T17:35:22.825Z,25.35
2017-12-19T17:37:50.367Z,25.60
2017-12-19T17:40:19.662Z,23.15
2017-12-19T17:42:47.492Z,24.75
2017-12-19T17:45:15.038Z,25.25
2017-12-19T17:47:42.544Z,25.37
2017-12-19T17:50:10.058Z,24.02
2017-12-19T17:52:37.564Z,25.40
2017-12-19T17:55:05.117Z,25.02
2017-12-19T17:57:32.613Z,25.42
2017-12-19T18:00:00.910Z,26.23
2017-12-19T18:02:28.455Z,22.90
2017-12-19T18:04:56.034Z,22.27
2017-12-19T18:07:23.542Z,23.98
2017-12-19T18:09:51.057Z,24.73
2017-12-19T18:12:18.565Z,23.55
2017-12-19T18:14:46.132Z,25.58
2017-12-19T18:17:13.666Z,24.12
2017-12-19T18:19:41.194Z,25.40
2017-12-19T18:22:08.703Z,23.42
2017-12-19T18:24:36.320Z,25.05
2017-12-19T18:27:03.877Z,23.33
2017-12-19T18:29:31.382Z,24.02
2017-12-19T18:31:58.905Z,24.65
2017-12-19T18:34:26.414Z,25.60
2017-12-19T18:36:53.993Z,25.27
2017-12-19T18:39:22.263Z,25.02
2017-12-19T18:41:50.612Z,25.42
2017-12-19T18:44:18.156Z,24.12
2017-12-19T18:46:45.679Z,23.23
2017-12-19T18:49:13.227Z,23.02
2017-12-19T18:51:40.750Z,21.98
2017-12-19T18:54:08.254Z,25.20
2017-12-19T18:56:35.838Z,24.83
2017-12-19T18:59:03.337Z,24.02
2017-12-19T19:01:30.903Z,23.45
2017-12-19T19:03:58.472Z,22.15
2017-12-19T19:06:26.810Z,21.80
2017-12-19T19:08:54.314Z,24.23
2017-12-19T19:11:22.653Z,21.60
2017-12-19T19:13:50.163Z,28.15
2017-12-19T19:16:17.684Z,27.15
2017-12-19T19:18:45.214Z,29.77
2017-12-19T19:21:12.721Z,37.83
2017-12-19T19:23:40.283Z,39.03
2017-12-19T19:26:08.641Z,34.60
2017-12-19T19:28:36.223Z,26.70
2017-12-19T19:31:03.746Z,26.48
2017-12-19T19:33:31.305Z,23.25
2017-12-19T19:35:58.918Z,26.75
2017-12-19T19:38:27.258Z,25.65
2017-12-19T19:40:54.782Z,25.48
2017-12-19T19:43:22.325Z,22.00
2017-12-19T19:45:49.878Z,23.87
2017-12-19T19:48:17.441Z,22.10
2017-12-19T19:50:45.007Z,20.70
2017-12-19T19:53:12.601Z,21.67
2017-12-19T19:55:40.322Z,20.92
2017-12-19T19:58:07.949Z,21.80
2017-12-19T20:00:35.615Z,21.42
2017-12-19T20:03:03.198Z,21.50
2017-12-19T20:05:31.519Z,20.42
2017-12-19T20:07:59.146Z,22.58
2017-12-19T20:10:27.475Z,20.35
2017-12-19T20:12:55.075Z,21.73
2017-12-19T20:15:23.407Z,22.98
2017-12-19T20:17:50.997Z,21.08
2017-12-19T20:20:18.554Z,23.15
2017-12-19T20:22:46.108Z,23.05
2017-12-19T20:25:13.685Z,23.92
2017-12-19T20:27:41.242Z,23.00
2017-12-19T20:30:08.822Z,21.45
2017-12-19T20:32:37.138Z,23.48
2017-12-19T20:35:04.717Z,22.73
2017-12-19T20:37:32.215Z,22.92
2017-12-19T20:40:00.586Z,20.83
2017-12-19T20:42:28.905Z,21.52
2017-12-19T20:44:56.458Z,24.02
2017-12-19T20:47:24.030Z,22.35
2017-12-19T20:49:51.625Z,22.87
2017-12-19T20:52:19.198Z,24.27
2017-12-19T20:54:46.758Z,23.05
2017-12-19T20:57:14.348Z,23.60
2017-12-19T20:59:41.979Z,25.12
2017-12-19T21:02:09.552Z,24.00
2017-12-19T21:04:37.868Z,24.90
2017-12-19T21:07:05.433Z,23.92
2017-12-19T21:09:33.023Z,25.60
2017-12-19T21:12:01.381Z,25.58
2017-12-19T21:14:28.930Z,24.95
2017-12-19T21:16:56.476Z,24.65
2017-12-19T21:19:24.051Z,23.65
2017-12-19T21:21:51.610Z,24.17
2017-12-19T21:24:19.181Z,24.10
2017-12-19T21:26:46.854Z,25.23
2017-12-19T21:29:14.436Z,25.35
2017-12-19T21:31:41.990Z,25.02
2017-12-19T21:34:09.565Z,23.00
2017-12-19T21:36:37.882Z,22.62
2017-12-19T21:39:05.403Z,21.23
2017-12-19T21:41:32.965Z,20.85
2017-12-19T21:44:01.309Z,21.85
2017-12-19T21:46:28.858Z,20.60
2017-12-19T21:48:56.428Z,20.75
2017-12-19T21:51:24.026Z,18.80
2017-12-19T21:53:52.411Z,18.90
2017-12-19T21:56:20.721Z,18.65
2017-12-19T21:58:48.298Z,17.25
2017-12-19T22:01:16.316Z,15.82
2017-12-19T22:03:44.587Z,15.40
2017-12-19T22:06:12.158Z,16.87
2017-12-19T22:08:40.474Z,16.12
2017-12-19T22:11:07.991Z,16.85
2017-12-19T22:13:35.561Z,15.23
2017-12-19T22:16:03.128Z,16.40
2017-12-19T22:18:30.682Z,16.37
2017-12-19T22:20:58.246Z,15.65
2017-12-19T22:23:25.742Z,16.15
2017-12-19T22:25:53.311Z,15.75
2017-12-19T22:28:20.858Z,15.15
2017-12-19T22:30:48.429Z,15.68
2017-12-19T22:33:16.749Z,15.23
2017-12-19T22:35:45.097Z,15.07
2017-12-19T22:38:12.652Z,15.15
2017-12-19T22:40:40.213Z,15.20
2017-12-19T22:43:07.760Z,14.57
2017-12-19T22:45:35.420Z,14.98
2017-12-19T22:48:02.980Z,14.05
2017-12-19T22:50:30.537Z,13.50
2017-12-19T22:52:58.107Z,14.80
2017-12-19T22:55:25.655Z,13.98
2017-12-19T22:57:53.231Z,14.80
2017-12-19T23:00:20.786Z,13.95
2017-12-19T23:02:48.361Z,13.55
2017-12-19T23:05:15.909Z,14.48
2017-12-19T23:07:43.498Z,13.57
2017-12-19T23:10:10.998Z,14.25
2017-12-19T23:12:38.526Z,14.20
2017-12-19T23:15:06.844Z,15.25
2017-12-19T23:17:34.374Z,15.40
2017-12-19T23:20:01.931Z,15.52
2017-12-19T23:22:30.217Z,15.60
2017-12-19T23:24:57.799Z,14.70
2017-12-19T23:27:26.077Z,14.43
2017-12-19T23:29:53.594Z,14.43
2017-12-19T23:32:21.941Z,13.27
2017-12-19T23:34:49.507Z,15.00
2017-12-19T23:37:17.081Z,14.77
2017-12-19T23:39:44.629Z,15.48
2017-12-19T23:42:12.145Z,14.77
2017-12-19T23:44:39.651Z,15.27
2017-12-19T23:47:07.166Z,14.50
2017-12-19T23:49:34.662Z,15.75
2017-12-19T23:52:02.188Z,15.02
2017-12-19T23:54:29.693Z,13.40
2017-12-19T23:56:57.229Z,15.70
2017-12-19T23:59:25.580Z,15.95
